Terminal Aerodrome Forecast
Issued by NWS

Home | Current Version | Previous Version | Text Only | Print | Product List | Glossary Off
Versions: 1 2 3 4 5 6 7 8 9 10 11 12 13

000
FTUS44 KTSA 011120
TAFBVO
TAF
KBVO 011120Z 0112/0212 20007KT P6SM BKN150
     FM011500 21011G18KT P6SM BKN150
     FM020100 19011KT P6SM BKN100=

USA.gov is the U.S. government's official web portal to all federal, state and local government web resources and services.